Latest Coastal Weather Observations for Milingimbi

IDD60701

Issued at 12:25 pm CST Monday 21 April 2014 (issued every 10 minutes, with the page automatically refreshed every 10 minutes)

About coastal observations | Map of coastal stations | Coastal observations for NT | Marine services | Other Formats
Station Details ID: 014404 Name: MILINGIMBI AIRPORT Lat: -12.09 Lon: 134.89 Height: 15.0 m
Data from the previous 72 hours. | See also: Recent months at Milingimbi
Date/Time
CST
Temp

°C
Wind Pressure Rain
since 9am
mm
Weather Cloud Vis
km
Sea
Height
m
Swell
Dir
 
Speed
knots
Gust
knots
hPa Trend Height
m
Period
s
Dir
21/12:00pm 31.0 E 10 16 1009.9 - 0.0 - - - - - - -
21/11:30am 31.1 E 7 12 1010.4 - 0.0 - - - - - - -
21/11:00am 30.2 ESE 11 16 1011.1 - 0.0 - - - - - - -
21/10:30am 29.7 E 9 13 1011.3 - 0.0 - - - - - - -
21/10:00am 29.3 ESE 11 15 1011.4 - 0.0 - - - - - - -
21/09:30am 28.1 ESE 10 14 1011.2 - 0.0 - - - - - - -
21/09:00am 28.2 ESE 9 13 1011.0 - 0.0 - - - - - - -
21/08:30am 27.0 SE 8 10 1010.9 - 0.0 - - - - - - -
21/08:00am 26.0 SE 6 8 1010.7 - 0.0 - - - - - - -
21/07:30am 24.8 SSE 5 8 1010.5 - 0.0 - - - - - - -
21/07:00am 23.9 SE 6 7 1010.0 - 0.0 - - - - - - -
21/06:30am 23.9 SSE 5 7 1009.8 - 0.0 - - - - - - -
21/06:00am 24.3 SSE 7 9 1009.3 - 0.0 - - - - - - -
21/05:30am 24.4 SE 7 10 1009.1 - 0.0 - - - - - - -
21/05:00am 24.4 SE 6 8 1009.1 - 0.0 - - - - - - -
21/04:30am 24.2 SE 6 8 1009.0 - 0.0 - - - - - - -
21/04:00am 24.3 SE 6 8 1009.3 - 0.0 - - - - - - -
21/03:30am 24.4 SE 6 7 1009.1 - 0.0 - - - - - - -
21/03:00am 24.5 SSE 6 8 1009.0 - 0.0 - - - - - - -
21/02:30am 24.6 SSE 6 7 1009.1 - 0.0 - - - - - - -
21/02:00am 24.8 SSE 6 9 1009.4 - 0.0 - - - - - - -
21/01:30am 25.2 SSE 6 8 1009.7 - 0.0 - - - - - - -
21/01:00am 25.7 SSE 7 9 1010.0 - 0.0 - - - - - - -
21/12:30am 25.7 SE 7 9 1010.1 - 0.0 - - - - - - -
21/12:00am 25.8 SE 6 8 1010.4 - 0.0 - - - - - - -
 
Date/Time
CST
Temp

°C
Wind Pressure Rain
since 9am
mm
Weather Cloud Vis
km
Sea
Height
m
Swell
Dir
 
Speed
knots
Gust
knots
hPa Trend Height
m
Period
s
Dir
20/11:30pm 26.0 SSE 5 7 1010.6 - 0.0 - - - - - - -
20/11:00pm 26.8 SE 7 10 1010.9 - 0.0 - - - - - - -
20/10:30pm 27.4 SE 9 13 1011.0 - 0.0 - - - - - - -
20/10:00pm 27.1 SE 8 10 1011.2 - 0.0 - - - - - - -
20/09:30pm 26.9 SE 7 10 1011.2 - 0.0 - - - - - - -
20/09:00pm 26.9 SE 6 8 1011.1 - 0.0 - - - - - - -
20/08:30pm 27.1 S 6 7 1011.0 - 0.0 - - - - - - -
20/08:00pm 28.3 SSE 6 10 1010.7 - 0.0 - - - - - - -
20/07:30pm 29.1 ESE 7 11 1010.2 - 0.0 - - - - - - -
20/07:00pm 29.4 E 8 12 1009.6 - 0.0 - - - - - - -
20/06:30pm 29.6 E 7 12 1009.4 - 0.0 - - - - - - -
20/06:00pm 30.0 E 8 15 1009.0 - 0.0 - - - - - - -
20/05:30pm 30.6 E 7 11 1008.7 - 0.0 - - - - - - -
20/05:00pm 31.5 E 8 12 1008.2 - 0.0 - - - - - - -
20/04:30pm 31.0 E 7 12 1007.9 - 0.0 - - - - - - -
20/04:00pm 31.2 ESE 8 11 1007.5 - 0.0 - - - - - - -
20/03:30pm 31.9 E 8 13 1007.5 - 0.0 - - - - - - -
20/03:00pm 31.1 E 10 16 1007.5 - 0.0 - - - - - - -
20/02:30pm 31.5 E 7 11 1007.7 - 0.0 - - - - - - -
20/02:00pm 31.4 E 9 13 1007.9 - 0.0 - - - - - - -
20/01:30pm 31.7 E 8 12 1008.4 - 0.0 - - - - - - -
20/01:00pm 31.9 ESE 10 15 1008.8 - 0.0 - - - - - - -
20/12:30pm 31.4 E 10 15 1009.5 - 0.0 - - - - - - -
20/12:00pm 31.2 ESE 10 16 1009.6 - 0.0 - - - - - - -
20/11:30am 31.1 ESE 10 16 1010.1 - 0.0 - - - - - - -
20/11:00am 30.8 ESE 12 18 1010.4 - 0.0 - - - - - - -
20/10:30am 30.4 ESE 11 16 1010.7 - 0.0 - - - - - - -
20/10:00am 29.5 ESE 10 16 1010.8 - 0.0 - - - - - - -
20/09:30am 28.7 SE 11 15 1010.7 - 0.0 - - - - - - -
20/09:00am 28.0 SE 9 13 1010.5 - 10.4 - - - - - - -
20/08:30am 26.6 SSE 8 11 1010.7 - 10.4 - - - - - - -
20/08:00am 25.1 SSE 8 10 1010.5 - 10.4 - - - - - - -
20/07:30am 23.7 S 6 7 1010.2 - 10.4 - - - - - - -
20/07:00am 23.1 SSE 5 7 1009.9 - 10.4 - - - - - - -
20/06:30am 23.1 SSE 6 8 1009.6 - 10.4 - - - - - - -
20/06:00am 23.0 SE 6 8 1009.3 - 10.4 - - - - - - -
20/05:30am 23.0 SSE 6 8 1009.1 - 10.4 - - - - - - -
20/05:00am 22.9 SSE 5 8 1009.0 - 10.4 - - - - - - -
20/04:30am 23.0 S 5 7 1008.6 - 10.4 - - - - - - -
20/04:00am 23.2 SSE 7 11 1008.5 - 10.4 - - - - - - -
20/03:30am 23.2 SSE 7 10 1008.5 - 10.4 - - - - - - -
20/03:00am 23.3 S 7 9 1008.4 - 10.4 - - - - - - -
20/02:30am 23.4 S 5 6 1008.9 - 10.4 - - - - - - -
20/02:00am 23.3 SSE 7 9 1009.1 - 10.4 - - - - - - -
20/01:30am 23.4 S 6 8 1009.5 - 10.4 - - - - - - -
20/01:00am 23.5 S 6 8 1009.7 - 10.4 - - - - - - -
20/12:30am 23.7 S 7 9 1010.0 - 10.4 - - - - - - -
20/12:00am 24.0 S 7 9 1010.2 - 10.4 - - - - - - -
 
Date/Time
CST
Temp

°C
Wind Pressure Rain
since 9am
mm
Weather Cloud Vis
km
Sea
Height
m
Swell
Dir
 
Speed
knots
Gust
knots
hPa Trend Height
m
Period
s
Dir
19/11:30pm 24.0 S 6 8 1010.5 - 10.4 - - - - - - -
19/11:00pm 23.9 S 5 8 1010.8 - 10.4 - - - - - - -
19/10:30pm 23.8 SSW 5 8 1011.0 - 10.4 - - - - - - -
19/10:00pm 23.8 SSW 4 6 1011.3 - 10.4 - - - - - - -
19/09:30pm 23.7 SW 4 5 1011.6 - 10.4 - - - - - - -
19/09:00pm 23.7 SSW 5 7 1011.8 - 10.4 - - - - - - -
19/08:30pm 23.8 S 6 9 1011.6 - 10.4 - - - - - - -
19/08:00pm 23.4 S 4 6 1011.3 - 10.4 - - - - - - -
19/07:30pm 23.5 S 2 4 1010.8 - 10.4 - - - - - - -
19/07:00pm 23.6 S 5 7 1010.5 - 10.2 - - - - - - -
19/06:30pm 23.7 SSE 7 10 1010.5 - 9.8 - - - - - - -
19/06:00pm 23.2 SSE 5 6 1010.3 - 9.0 - - - - - - -
19/05:30pm 23.5 E 13 22 1010.6 - 3.0 - - - - - - -
19/05:00pm 27.1 SSE 6 9 1009.4 - 0.0 - - - - - - -
19/04:30pm 27.3 SSE 7 11 1008.9 - 0.0 - - - - - - -
19/04:00pm 26.9 SSE 7 10 1008.8 - 0.0 - - - - - - -
19/03:30pm 27.4 SE 9 13 1008.8 - 0.0 - - - - - - -
19/03:00pm 28.3 SE 9 14 1008.5 - 0.0 - - - - - - -
19/02:30pm 28.9 SE 11 17 1009.0 - 0.0 - - - - - - -
19/02:00pm 28.4 SE 12 19 1009.2 - 0.0 - - - - - - -
19/01:30pm 28.2 SE 15 20 1009.7 - 0.0 - - - - - - -
19/01:00pm 30.4 E 9 15 1009.7 - 0.0 - - - - - - -
19/12:30pm 30.3 E 9 16 1010.1 - 0.0 - - - - - - -
19/12:00pm 29.5 E 6 10 1010.5 - 0.0 - - - - - - -
19/11:30am 28.9 E 7 13 1011.1 - 0.0 - - - - - - -
19/11:00am 28.8 ESE 9 13 1011.6 - 0.0 - - - - - - -
19/10:30am 28.4 E 6 11 1012.0 - 0.0 - - - - - - -
19/10:00am 26.5 ESE 7 12 1012.1 - 0.0 - - - - - - -
19/09:30am 26.7 ESE 12 16 1012.0 - 0.0 - - - - - - -
19/09:00am 27.5 SE 7 10 1011.4 - 7.6 - - - - - - -
19/08:30am 26.1 S 6 8 1011.7 - 7.6 - - - - - - -
19/08:00am 24.2 S 4 6 1011.5 - 7.6 - - - - - - -
19/07:30am 23.2 SSW 3 5 1011.3 - 7.6 - - - - - - -
19/07:00am 23.0 SSW 3 4 1011.0 - 7.6 - - - - - - -
19/06:30am 22.9 S 4 5 1010.6 - 7.6 - - - - - - -
19/06:00am 23.0 S 3 4 1010.2 - 7.6 - - - - - - -
19/05:30am 23.1 SSE 4 6 1010.3 - 7.6 - - - - - - -
19/05:00am 23.1 SSE 4 5 1010.2 - 7.6 - - - - - - -
19/04:30am 23.0 SSE 4 5 1010.3 - 7.6 - - - - - - -
19/04:00am 23.1 S 3 4 1010.5 - 7.6 - - - - - - -
19/03:30am 23.2 S 3 4 1010.5 - 7.6 - - - - - - -
19/03:00am 23.4 SSE 4 5 1010.4 - 7.4 - - - - - - -
19/02:30am 23.5 SSE 5 7 1010.7 - 7.4 - - - - - - -
19/02:00am 23.5 SE 6 8 1010.5 - 7.4 - - - - - - -
19/01:30am 23.7 SSE 6 8 1010.7 - 7.4 - - - - - - -
19/01:00am 23.8 SE 7 9 1011.0 - 7.4 - - - - - - -
19/12:30am 23.8 SSE 6 9 1011.4 - 7.4 - - - - - - -
19/12:00am 23.8 SSE 7 10 1011.5 - 7.4 - - - - - - -
 
Date/Time
CST
Temp

°C
Wind Pressure Rain
since 9am
mm
Weather Cloud Vis
km
Sea
Height
m
Swell
Dir
 
Speed
knots
Gust
knots
hPa Trend Height
m
Period
s
Dir
18/11:30pm 23.9 SE 8 12 1012.0 - 7.4 - - - - - - -
18/11:00pm 24.1 SE 9 13 1012.3 - 7.4 - - - - - - -
18/10:30pm 24.3 SE 7 10 1012.4 - 7.4 - - - - - - -
18/10:00pm 24.1 SE 7 10 1012.6 - 7.4 - - - - - - -
18/09:30pm 24.1 SSE 5 8 1012.8 - 7.4 - - - - - - -
18/09:00pm 24.0 SSE 6 8 1012.6 - 7.4 - - - - - - -
18/08:30pm 24.1 SSE 6 8 1012.8 - 7.4 - - - - - - -
18/08:00pm 24.6 SSE 5 7 1012.8 - 7.4 - - - - - - -
18/07:30pm 24.8 SE 4 6 1012.4 - 7.4 - - - - - - -
18/07:00pm 24.7 SE 2 6 1012.1 - 7.2 - - - - - - -
18/06:30pm 24.5 ESE 2 3 1011.8 - 6.8 - - - - - - -
18/06:00pm 24.2 NE 6 11 1011.7 - 6.2 - - - - - - -
18/05:30pm 24.1 NE 6 11 1011.9 - 5.4 - - - - - - -
18/05:00pm 24.3 NE 2 5 1011.4 - 5.0 - - - - - - -
18/04:30pm 24.4 NE 6 11 1011.0 - 4.6 - - - - - - -
18/04:00pm 24.5 N 7 11 1010.8 - 2.2 - - - - - - -
18/03:30pm 26.9 WSW 4 5 1010.2 - 1.2 - - - - - - -
18/03:00pm 27.0 S 3 5 1010.3 - 1.2 - - - - - - -
18/02:30pm 26.6 SSE 4 6 1010.4 - 1.2 - - - - - - -
18/02:00pm 26.4 SSE 5 6 1010.3 - 1.2 - - - - - - -
18/01:30pm 26.1 SSE 4 6 1010.5 - 1.2 - - - - - - -
18/01:00pm 25.5 NW 1 4 1010.8 - 1.0 - - - - - - -
18/12:30pm 25.4 SE 2 6 1011.2 - 0.4 - - - - - - -

Other Formats:

Comma delimited format used in spreadsheet applications
http://www.bom.gov.au/fwo/IDD60701/IDD60701.94140.axf

JavaScript Object Notation format (JSON) in row-major order
http://www.bom.gov.au/fwo/IDD60701/IDD60701.94140.json